Map

Track Data

SID SEASON NUMBER BASIN SUBBASIN NAME ISO_TIME NATURE LAT LON WMO_WIND WMO_PRES WMO_AGENCY TRACK_TYPE DIST2LAND LANDFALL IFLAG USA_AGENCY USA_ATCF_ID USA_LAT USA_LON USA_RECORD USA_STATUS USA_WIND USA_PRES USA_SSHS USA_R34_NE USA_R34_SE USA_R34_SW USA_R34_NW USA_R50_NE USA_R50_SE USA_R50_SW USA_R50_NW USA_R64_NE USA_R64_SE USA_R64_SW USA_R64_NW USA_POCI USA_ROCI USA_RMW USA_EYE TOKYO_LAT TOKYO_LON TOKYO_GRADE TOKYO_WIND TOKYO_PRES TOKYO_R50_DIR TOKYO_R50_LONG TOKYO_R50_SHORT TOKYO_R30_DIR TOKYO_R30_LONG TOKYO_R30_SHORT TOKYO_LAND CMA_LAT CMA_LON CMA_CAT CMA_WIND CMA_PRES HKO_LAT HKO_LON HKO_CAT HKO_WIND HKO_PRES NEWDELHI_LAT NEWDELHI_LON NEWDELHI_GRADE NEWDELHI_WIND NEWDELHI_PRES NEWDELHI_CI NEWDELHI_DP NEWDELHI_POCI REUNION_LAT REUNION_LON REUNION_TYPE REUNION_WIND REUNION_PRES REUNION_TNUM REUNION_CI REUNION_RMW REUNION_R34_NE REUNION_R34_SE REUNION_R34_SW REUNION_R34_NW REUNION_R50_NE REUNION_R50_SE REUNION_R50_SW REUNION_R50_NW REUNION_R64_NE REUNION_R64_SE REUNION_R64_SW REUNION_R64_NW BOM_LAT BOM_LON BOM_TYPE BOM_WIND BOM_PRES BOM_TNUM BOM_CI BOM_RMW BOM_R34_NE BOM_R34_SE BOM_R34_SW BOM_R34_NW BOM_R50_NE BOM_R50_SE BOM_R50_SW BOM_R50_NW BOM_R64_NE BOM_R64_SE BOM_R64_SW BOM_R64_NW BOM_ROCI BOM_POCI BOM_EYE BOM_POS_METHOD BOM_PRES_METHOD NADI_LAT NADI_LON NADI_CAT NADI_WIND NADI_PRES WELLINGTON_LAT WELLINGTON_LON WELLINGTON_WIND WELLINGTON_PRES DS824_LAT DS824_LON DS824_STAGE DS824_WIND DS824_PRES TD9636_LAT TD9636_LON TD9636_STAGE TD9636_WIND TD9636_PRES TD9635_LAT TD9635_LON TD9635_WIND TD9635_PRES TD9635_ROCI NEUMANN_LAT NEUMANN_LON NEUMANN_CLASS NEUMANN_WIND NEUMANN_PRES MLC_LAT MLC_LON MLC_CLASS MLC_WIND MLC_PRES USA_GUST BOM_GUST BOM_GUST_PER REUNION_GUST REUNION_GUST_PER USA_SEAHGT USA_SEARAD_NE USA_SEARAD_SE USA_SEARAD_SW USA_SEARAD_NW STORM_SPEED STORM_DIR
2021296N06127 2021 95 WP MM NOT_NAMED 2021-10-22 12:00:00 NR 5.80000 127.200 main 124 11 O_____________ jtwc_wp WP262021 5.80000 127.200 DB 10 1010 -3 31 282
2021296N06127 2021 95 WP MM NOT_NAMED 2021-10-22 15:00:00 NR 6.13052 125.667 main 0 0 P_____________ WP262021 6.13052 125.667 DB 10 1012 -3 32 283
2021296N06127 2021 95 WP MM NOT_NAMED 2021-10-22 18:00:00 NR 6.50000 124.100 main 0 0 O_____________ jtwc_wp WP262021 6.50000 124.100 DB 10 1014 -3 32 285
2021296N06127 2021 95 WP MM NOT_NAMED 2021-10-22 21:00:00 NR 6.93533 122.536 main 33 0 P_____________ WP262021 6.93533 122.536 DB 12 1012 -3 29 288
2021296N06127 2021 95 WP MM NOT_NAMED 2021-10-23 00:00:00 NR 7.40000 121.300 main 74 74 O_____________ jtwc_wp WP262021 7.40000 121.300 DB 15 1010 -3 20 297
2021296N06127 2021 95 WP MM NOT_NAMED 2021-10-23 03:00:00 NR 7.86417 120.700 main 155 155 P_____________ WP262021 7.86417 120.700 DB 15 1010 -3 13 315
2021296N06127 2021 95 WP MM NOT_NAMED 2021-10-23 06:00:00 NR 8.30000 120.400 main 199 180 O_____________ jtwc_wp WP262021 8.30000 120.400 DB 15 1010 -3 10 317
2021296N06127 2021 95 WP MM NOT_NAMED 2021-10-23 09:00:00 NR 8.61242 120.000 main 180 117 P_____________ WP262021 8.61242 120.000 DB 15 1010 -3 11 311
2021296N06127 2021 95 WP MM NOT_NAMED 2021-10-23 12:00:00 NR 9.00000 119.600 main 117 40 O_____________ jtwc_wp WP262021 9.00000 119.600 DB 15 1010 -3 14 325
2021296N06127 2021 95 WP MM NOT_NAMED 2021-10-23 15:00:00 NR 9.72971 119.210 main 40 0 P_____________ WP262021 9.72971 119.210 DB 15 1010 -3 17 328
2021296N06127 2021 95 WP MM NOT_NAMED 2021-10-23 18:00:00 NR 10.4000 118.700 main 31 31 O_____________ jtwc_wp WP262021 10.4000 118.700 DB 15 1010 -3 1012 160 65 16 305
2021296N06127 2021 95 WP MM NOT_NAMED 2021-10-23 21:00:00 NR 10.6480 117.900 main 113 113 P_____________ WP262021 10.6480 117.900 DB 15 1010 -3 1012 137 47 16 281
2021296N06127 2021 95 WP MM NOT_NAMED 2021-10-24 00:00:00 NR 10.7000 117.100 main 184 184 O_____________ jtwc_wp WP262021 10.7000 117.100 DB 15 1010 -3 1012 115 30 13 275
2021296N06127 2021 95 WP MM NOT_NAMED 2021-10-24 03:00:00 NR 10.7647 116.575 main 222 220 P_____________ WP262021 10.7647 116.575 DB 15 1010 -3 1012 115 30 7 273
2021296N06127 2021 95 WP MM NOT_NAMED 2021-10-24 06:00:00 TS 10.7333 116.417 main 227 227 O_OO__________ jtwc_wp WP262021 10.8000 116.200 DB 15 1010 -3 1012 115 30 10.6000 116.800 1 25 1005 10.6000 116.900 TD 25 1004 4 262
2021296N06127 2021 95 WP MM NOT_NAMED 2021-10-24 09:00:00 TS 10.7137 116.197 main 242 242 P_PO__________ WP262021 10.8498 115.915 DB 15 1009 -3 1010 117 30 10.4551 116.358 1 25 1005 10.7000 116.600 TD 25 1004 6 263
2021296N06127 2021 95 WP MM NOT_NAMED 2021-10-24 12:00:00 TS 10.6600 115.840 main 274 266 O_OO__________ jtwc_wp WP262021 10.9000 115.600 DB 15 1008 -3 1009 120 30 10.3000 115.900 1 25 1005 10.7000 116.100 TD 25 1004 9 262
2021296N06127 2021 95 WP MM NOT_NAMED 2021-10-24 15:00:00 TS 10.5917 115.327 main 307 307 P_PO__________ WP262021 10.9277 115.065 DB 17 1007 -3 1009 120 30 10.1474 115.415 1 25 1005 10.7000 115.500 TD 25 1004 11 265
2021296N06127 2021 95 WP MM NOT_NAMED 2021-10-24 18:00:00 TS 10.5667 114.767 main 352 352 O_OO__________ jtwc_wp WP262021 11.0000 114.500 DB 20 1007 -3 1009 120 30 10.1000 114.900 1 25 1005 10.6000 114.900 TD 25 1004 11 279
2021296N06127 2021 95 WP MM NOT_NAMED 2021-10-24 21:00:00 TS 10.7616 114.209 main 419 419 P_PO__________ WP262021 11.2147 114.100 DB 20 1008 -3 1009 130 30 10.2701 114.328 1 25 1005 10.8000 114.200 TD 25 1004 10 289
2021296N06127 2021 95 WP MM NOT_NAMED 2021-10-25 00:00:00 TS 10.9000 113.767 main 462 447 O_OO__________ jtwc_wp WP262021 11.4000 113.700 DB 20 1009 -3 1009 140 30 10.5000 113.800 1 25 1005 10.8000 113.800 TD 25 1004 10 285
2021296N06127 2021 95 WP MM NOT_NAMED 2021-10-25 03:00:00 TS 11.0109 113.239 main 437 394 P_PO__________ WP262021 11.4103 113.105 DB 20 1008 -3 1009 145 30 10.6224 113.412 1 25 1005 11.0000 113.200 TD 25 1004 10 278
2021296N06127 2021 95 WP MM NOT_NAMED 2021-10-25 06:00:00 TS 11.0333 112.767 main 394 363 O_OO__________ jtwc_wp WP262021 11.3000 112.600 DB 20 1007 -3 1009 150 30 10.7000 113.100 1 25 1005 11.1000 112.600 TD 25 1004 7 268
2021296N06127 2021 95 WP MM NOT_NAMED 2021-10-25 09:00:00 TS 10.9833 112.506 main 363 345 P_PO__________ WP262021 11.0998 112.440 DB 20 1007 -3 1009 150 30 10.7500 112.777 1 25 1005 11.1000 112.300 TD 25 1004 4 253
2021296N06127 2021 95 WP MM NOT_NAMED 2021-10-25 12:00:00 TS 10.9000 112.333 main 345 335 O_OO__________ jtwc_wp WP262021 10.9000 112.400 DB 20 1007 -3 1009 150 30 10.8000 112.500 1 25 1005 11.0000 112.100 TD 25 1004 3 254
2021296N06127 2021 95 WP MM NOT_NAMED 2021-10-25 15:00:00 TS 10.8916 112.186 main 335 315 P_PO__________ WP262021 10.7825 112.265 DB 20 1006 -3 1008 175 40 10.8924 112.292 1 25 1005 11.0000 112.000 TD 25 1004 3 276
2021296N06127 2021 95 WP MM NOT_NAMED 2021-10-25 18:00:00 TS 10.9333 112.033 main 315 297 O_OO__________ jtwc_wp WP262021 10.8000 112.100 DB 20 1006 -3 1007 200 50 11.0000 112.100 1 25 1005 11.0000 111.900 TD 25 1004 4 299
2021296N06127 2021 95 WP MM NOT_NAMED 2021-10-25 21:00:00 TS 11.0683 111.862 main 297 262 P_PO__________ WP262021 11.0124 111.930 DB 22 1005 -3 1007 200 50 11.0925 111.857 1 27 1003 11.1000 111.800 TD 25 1004 5 304
2021296N06127 2021 95 WP MM NOT_NAMED 2021-10-26 00:00:00 TS 11.2000 111.633 main 262 235 O_OO__________ jtwc_wp WP262021 11.3000 111.700 TD 25 1004 -1 1007 200 50 11.2000 111.600 1 29 1002 11.1000 111.600 TD 25 1004 6 309
2021296N06127 2021 95 WP MM NOT_NAMED 2021-10-26 03:00:00 TS 11.4600 111.377 main 233 188 P_PO__________ WP262021 11.5301 111.365 TD 25 1004 -1 1007 185 40 11.3499 111.365 1 29 1002 11.5000 111.400 TD 25 1004 8 305
2021296N06127 2021 95 WP MM NOT_NAMED 2021-10-26 06:00:00 TS 11.6333 111.000 main 188 154 O_OO__________ jtwc_wp WP262021 11.7000 111.000 TD 25 1004 -1 1007 170 30 11.5000 111.100 1 29 1002 11.7000 110.900 TD 30 1000 7 291
2021296N06127 2021 95 WP MM NOT_NAMED 2021-10-26 09:00:00 TS 11.7216 110.691 main 154 120 P_PO__________ WP262021 11.7649 110.707 TD 27 1002 -1 1007 160 27 11.6000 110.765 1 29 1002 11.8000 110.600 TD 30 1000 6 283
2021296N06127 2021 95 WP MM NOT_NAMED 2021-10-26 12:00:00 TS 11.7667 110.400 main 120 87 O_OO__________ jtwc_wp WP262021 11.8000 110.400 TD 30 1000 -1 1008 150 25 11.7000 110.400 1 29 1002 11.8000 110.400 TD 30 1000 6 281
2021296N06127 2021 95 WP MM NOT_NAMED 2021-10-26 15:00:00 TS 11.8467 110.046 main 77 54 P_PO__________ WP262021 11.8975 109.996 TD 30 1002 -1 1008 155 25 11.8425 110.043 1 29 1002 11.8000 110.100 TD 30 1000 7 290
2021296N06127 2021 95 WP MM NOT_NAMED 2021-10-26 18:00:00 TS 12.0000 109.733 main 44 21 O_OO__________ jtwc_wp WP262021 12.0000 109.600 TD 30 1004 -1 1008 160 25 12.0000 109.700 1 29 1002 12.0000 109.900 TD 30 1000 7 295
2021296N06127 2021 95 WP MM NOT_NAMED 2021-10-26 21:00:00 TS 12.1361 109.404 main 21 10 P_PO__________ WP262021 12.0658 109.296 TD 33 1001 -1 1008 160 25 12.1424 109.415 1 27 1003 12.2000 109.500 TD 30 1000 7 292
2021296N06127 2021 95 WP MM NOT_NAMED 2021-10-26 22:00:00 TS 12.1759 109.293 main 10 0 O_PP__________ jtwc_wp WP262021 12.1000 109.200 TS 35 1001 0 1008 160 25 12.1920 109.318 1 26 1004 12.2358 109.361 TD 30 1000 7 292
2021296N06127 2021 95 WP MM NOT_NAMED 2021-10-27 00:00:00 TS 12.2700 109.070 main 0 0 O_OO__________ jtwc_wp WP262021 12.2000 109.000 TD 25 1007 -1 1009 150 30 12.3000 109.100 1 25 1005 12.3000 109.100 TD 30 1000 8 296
2021296N06127 2021 95 WP MM NOT_NAMED 2021-10-27 03:00:00 TS 12.4611 108.702 main 0 0 P_PO__________ WP262021 12.3893 108.664 TD 22 1007 -1 30 12.4775 108.672 1 25 1005 12.5000 108.800 TD 25 1004 9 296
2021296N06127 2021 95 WP MM NOT_NAMED 2021-10-27 06:00:00 TS 12.6600 108.240 main 0 0 O_OO__________ jtwc_wp WP262021 12.6000 108.300 DB 20 1007 -3 30 12.7000 108.200 1 25 1005 12.6000 108.300 TD 25 1004 11 299
2021296N06127 2021 95 WP MM NOT_NAMED 2021-10-27 09:00:00 TS 12.9826 107.743 main 0 0 __P___________ WP262021 DB -3 12.9826 107.743 1 25 1005 11 305
2021296N06127 2021 95 WP MM NOT_NAMED 2021-10-27 12:00:00 TS 13.3000 107.300 main 0 __O___________ -5 13.3000 107.300 1 25 1005 11 306

Digital Typhoon Data and Search

About IBTrACS Database

This database is a web-friendly format of International Best Track Archive for Climate Stewardship (IBTrACS), a global best track data archive curated by NOAA dating back to 1842.

Updated: 2022-11-16